Capitol Logistics 1820

Operating for CJT



CYQM
Greater Moncton International Airport
Moncton, CA
CYMX
Montreal International (Mirabel) Airport
Montreal, CA

Activity Log

Date Flight Route Aircraft Duration
01/28/2022 CPX1820 HUL VIVIL ROGSA URVAS DAXES VIBNU B738 1h 36m
11/11/2021 CPX1820 HUL VIVIL ROGSA URVAS DAXES VIBNU B752 1h 31m

Route Details

Aircraft Information
Group: North America Fleet
Types: B738,B752,B762,B763
Route Data
Demand: V
Distance: 392nm
Duration: 1h 07m
Recm'd Route: HUL VIVIL ROGSA URVAS DAXES VIBNU
Origin Wx: CYQM 242000Z 06013G18KT 020V080 15SM FEW120 BKN270 15/M00 A3033 RMK AC1CI6 AC TR SLP276
Dest. Wx: CYMX 242000Z 00000KT 45SM FEW060 BKN180 BKN250 17/05 A3030 RMK SC2AC3CI2 SLP266
Notes:

Financial History
Total Freight: 74,071lbs
Average Load: 37,036lbs/flt
Fuel Used: 20,803lbs
Avg. Fuel Used: 10,402lbs/flt
Fuel Expense: $7,803
Avg. Fuel Expense: $3,901
Avg. Fuel Cost: $0.38/lbs
Total Gross Income: $183,696
Pilot Pay: $428
Total Expenses: $22,608
Total Revenue: $152,711
Average Revenue: $91,848.04